sensor_id;sensor_type;location;lat;lon;timestamp;P1;durP1;ratioP1;P2;durP2;ratioP2
25509;SDS011;13413;52.336;21.200;2022-07-06T00:01:58;7.70;;;6.90;;
25509;SDS011;13413;52.336;21.200;2022-07-06T00:05:18;8.20;;;7.40;;
25509;SDS011;13413;52.336;21.200;2022-07-06T00:08:38;8.60;;;6.70;;
25509;SDS011;13413;52.336;21.200;2022-07-06T00:11:57;7.90;;;7.00;;
25509;SDS011;13413;52.336;21.200;2022-07-06T00:15:16;7.60;;;6.70;;
25509;SDS011;13413;52.336;21.200;2022-07-06T00:18:36;7.00;;;6.30;;
25509;SDS011;13413;52.336;21.200;2022-07-06T00:21:55;7.70;;;7.00;;
25509;SDS011;13413;52.336;21.200;2022-07-06T00:25:14;7.40;;;6.70;;
25509;SDS011;13413;52.336;21.200;2022-07-06T00:28:33;8.30;;;6.70;;
25509;SDS011;13413;52.336;21.200;2022-07-06T00:35:25;8.30;;;6.20;;
25509;SDS011;13413;52.336;21.200;2022-07-06T00:38:44;6.90;;;6.20;;
25509;SDS011;13413;52.336;21.200;2022-07-06T00:42:04;10.40;;;6.70;;
25509;SDS011;13413;52.336;21.200;2022-07-06T00:45:23;10.40;;;6.60;;
25509;SDS011;13413;52.336;21.200;2022-07-06T00:48:44;7.20;;;6.50;;
25509;SDS011;13413;52.336;21.200;2022-07-06T00:52:04;8.20;;;6.40;;
25509;SDS011;13413;52.336;21.200;2022-07-06T00:55:24;7.40;;;6.50;;
25509;SDS011;13413;52.336;21.200;2022-07-06T00:58:45;7.40;;;6.70;;
25509;SDS011;13413;52.336;21.200;2022-07-06T01:02:04;7.10;;;6.50;;
25509;SDS011;13413;52.336;21.200;2022-07-06T01:05:23;8.20;;;6.70;;
25509;SDS011;13413;52.336;21.200;2022-07-06T01:08:42;15.20;;;6.70;;
25509;SDS011;13413;52.336;21.200;2022-07-06T01:12:02;9.30;;;6.40;;
25509;SDS011;13413;52.336;21.200;2022-07-06T01:15:23;8.00;;;6.60;;
25509;SDS011;13413;52.336;21.200;2022-07-06T01:18:43;7.80;;;7.00;;
25509;SDS011;13413;52.336;21.200;2022-07-06T01:22:02;8.50;;;6.70;;
25509;SDS011;13413;52.336;21.200;2022-07-06T01:25:21;8.20;;;7.40;;
25509;SDS011;13413;52.336;21.200;2022-07-06T01:28:40;8.20;;;7.40;;
25509;SDS011;13413;52.336;21.200;2022-07-06T01:31:59;8.00;;;6.80;;
25509;SDS011;13413;52.336;21.200;2022-07-06T01:35:19;13.90;;;6.30;;
25509;SDS011;13413;52.336;21.200;2022-07-06T01:38:47;10.50;;;7.80;;
25509;SDS011;13413;52.336;21.200;2022-07-06T01:42:07;7.50;;;6.80;;
25509;SDS011;13413;52.336;21.200;2022-07-06T01:45:26;9.60;;;6.40;;
25509;SDS011;13413;52.336;21.200;2022-07-06T01:48:49;6.70;;;6.10;;
25509;SDS011;13413;52.336;21.200;2022-07-06T01:52:09;6.90;;;6.20;;
25509;SDS011;13413;52.336;21.200;2022-07-06T01:55:28;8.00;;;6.70;;
25509;SDS011;13413;52.336;21.200;2022-07-06T01:58:48;8.30;;;7.00;;
25509;SDS011;13413;52.336;21.200;2022-07-06T02:02:08;8.60;;;6.90;;
25509;SDS011;13413;52.336;21.200;2022-07-06T02:05:28;7.40;;;6.20;;
25509;SDS011;13413;52.336;21.200;2022-07-06T02:08:48;8.70;;;6.60;;
25509;SDS011;13413;52.336;21.200;2022-07-06T02:12:08;8.30;;;7.30;;
25509;SDS011;13413;52.336;21.200;2022-07-06T02:15:28;8.00;;;6.90;;
25509;SDS011;13413;52.336;21.200;2022-07-06T02:18:48;7.00;;;6.00;;
25509;SDS011;13413;52.336;21.200;2022-07-06T02:22:08;7.20;;;6.50;;
25509;SDS011;13413;52.336;21.200;2022-07-06T02:25:27;8.90;;;7.00;;
25509;SDS011;13413;52.336;21.200;2022-07-06T02:28:47;7.60;;;6.90;;
25509;SDS011;13413;52.336;21.200;2022-07-06T02:32:07;8.30;;;6.30;;
25509;SDS011;13413;52.336;21.200;2022-07-06T02:35:27;8.30;;;6.30;;
25509;SDS011;13413;52.336;21.200;2022-07-06T02:38:47;6.80;;;6.20;;
25509;SDS011;13413;52.336;21.200;2022-07-06T02:42:07;7.50;;;6.70;;
25509;SDS011;13413;52.336;21.200;2022-07-06T02:45:26;6.70;;;5.90;;
25509;SDS011;13413;52.336;21.200;2022-07-06T02:48:45;6.70;;;6.00;;
25509;SDS011;13413;52.336;21.200;2022-07-06T02:52:04;6.70;;;6.10;;
25509;SDS011;13413;52.336;21.200;2022-07-06T02:55:24;7.10;;;5.90;;
25509;SDS011;13413;52.336;21.200;2022-07-06T02:58:43;6.20;;;5.70;;
25509;SDS011;13413;52.336;21.200;2022-07-06T03:02:04;9.10;;;5.80;;
25509;SDS011;13413;52.336;21.200;2022-07-06T03:05:23;9.20;;;5.80;;
25509;SDS011;13413;52.336;21.200;2022-07-06T03:08:43;6.30;;;5.70;;
25509;SDS011;13413;52.336;21.200;2022-07-06T03:12:04;6.80;;;5.80;;
25509;SDS011;13413;52.336;21.200;2022-07-06T03:15:24;6.30;;;5.70;;
25509;SDS011;13413;52.336;21.200;2022-07-06T03:18:44;7.00;;;5.50;;
25509;SDS011;13413;52.336;21.200;2022-07-06T03:22:03;6.50;;;5.70;;
25509;SDS011;13413;52.336;21.200;2022-07-06T03:25:22;7.60;;;5.20;;
25509;SDS011;13413;52.336;21.200;2022-07-06T03:28:41;7.20;;;5.70;;
25509;SDS011;13413;52.336;21.200;2022-07-06T03:32:00;6.70;;;5.80;;
25509;SDS011;13413;52.336;21.200;2022-07-06T03:35:20;7.20;;;5.70;;
25509;SDS011;13413;52.336;21.200;2022-07-06T03:38:43;12.40;;;5.70;;
25509;SDS011;13413;52.336;21.200;2022-07-06T03:42:04;5.50;;;5.00;;
25509;SDS011;13413;52.336;21.200;2022-07-06T03:45:23;5.60;;;5.10;;
25509;SDS011;13413;52.336;21.200;2022-07-06T03:49:00;5.80;;;4.70;;
25509;SDS011;13413;52.336;21.200;2022-07-06T03:52:19;6.60;;;4.70;;
25509;SDS011;13413;52.336;21.200;2022-07-06T03:55:39;4.90;;;4.50;;
25509;SDS011;13413;52.336;21.200;2022-07-06T03:58:59;5.40;;;4.80;;
25509;SDS011;13413;52.336;21.200;2022-07-06T04:02:20;6.50;;;4.70;;
25509;SDS011;13413;52.336;21.200;2022-07-06T04:05:39;8.00;;;5.20;;
25509;SDS011;13413;52.336;21.200;2022-07-06T04:08:58;5.50;;;4.90;;
25509;SDS011;13413;52.336;21.200;2022-07-06T04:12:18;6.60;;;4.80;;
25509;SDS011;13413;52.336;21.200;2022-07-06T04:15:37;6.40;;;5.00;;
25509;SDS011;13413;52.336;21.200;2022-07-06T04:18:56;8.00;;;5.20;;
25509;SDS011;13413;52.336;21.200;2022-07-06T04:22:15;5.40;;;5.00;;
25509;SDS011;13413;52.336;21.200;2022-07-06T04:25:34;5.80;;;5.30;;
25509;SDS011;13413;52.336;21.200;2022-07-06T04:28:54;6.60;;;5.00;;
25509;SDS011;13413;52.336;21.200;2022-07-06T04:32:13;7.00;;;5.40;;
25509;SDS011;13413;52.336;21.200;2022-07-06T04:35:35;6.20;;;5.10;;
25509;SDS011;13413;52.336;21.200;2022-07-06T04:38:55;5.60;;;5.10;;
25509;SDS011;13413;52.336;21.200;2022-07-06T04:42:15;5.80;;;5.20;;
25509;SDS011;13413;52.336;21.200;2022-07-06T04:45:34;6.30;;;5.30;;
25509;SDS011;13413;52.336;21.200;2022-07-06T04:48:53;6.00;;;5.50;;
25509;SDS011;13413;52.336;21.200;2022-07-06T04:52:12;7.30;;;6.40;;
25509;SDS011;13413;52.336;21.200;2022-07-06T04:55:32;7.30;;;6.50;;
25509;SDS011;13413;52.336;21.200;2022-07-06T04:58:51;7.70;;;6.90;;
25509;SDS011;13413;52.336;21.200;2022-07-06T05:02:11;8.00;;;7.20;;
25509;SDS011;13413;52.336;21.200;2022-07-06T05:05:30;7.30;;;6.60;;
25509;SDS011;13413;52.336;21.200;2022-07-06T05:08:49;8.00;;;7.30;;
25509;SDS011;13413;52.336;21.200;2022-07-06T05:12:10;7.50;;;6.80;;
25509;SDS011;13413;52.336;21.200;2022-07-06T05:15:29;11.80;;;6.60;;
25509;SDS011;13413;52.336;21.200;2022-07-06T05:18:49;6.00;;;5.30;;
25509;SDS011;13413;52.336;21.200;2022-07-06T05:22:08;6.20;;;5.50;;
25509;SDS011;13413;52.336;21.200;2022-07-06T05:25:29;7.20;;;5.50;;
25509;SDS011;13413;52.336;21.200;2022-07-06T05:28:48;6.90;;;5.50;;
25509;SDS011;13413;52.336;21.200;2022-07-06T05:32:08;6.90;;;5.50;;
25509;SDS011;13413;52.336;21.200;2022-07-06T05:35:27;13.70;;;5.70;;
25509;SDS011;13413;52.336;21.200;2022-07-06T05:38:47;6.00;;;5.40;;
25509;SDS011;13413;52.336;21.200;2022-07-06T05:42:07;7.30;;;5.70;;
25509;SDS011;13413;52.336;21.200;2022-07-06T05:45:27;6.50;;;5.50;;
25509;SDS011;13413;52.336;21.200;2022-07-06T05:48:46;6.00;;;5.50;;
25509;SDS011;13413;52.336;21.200;2022-07-06T05:52:05;6.80;;;5.00;;
25509;SDS011;13413;52.336;21.200;2022-07-06T05:55:25;7.50;;;4.60;;
25509;SDS011;13413;52.336;21.200;2022-07-06T05:58:45;5.40;;;4.80;;
25509;SDS011;13413;52.336;21.200;2022-07-06T06:02:04;5.90;;;5.00;;
25509;SDS011;13413;52.336;21.200;2022-07-06T06:05:24;7.50;;;4.30;;
25509;SDS011;13413;52.336;21.200;2022-07-06T06:08:44;4.90;;;4.50;;
25509;SDS011;13413;52.336;21.200;2022-07-06T06:12:05;5.10;;;4.50;;
25509;SDS011;13413;52.336;21.200;2022-07-06T06:15:26;5.00;;;4.50;;
25509;SDS011;13413;52.336;21.200;2022-07-06T06:18:47;4.40;;;4.00;;
25509;SDS011;13413;52.336;21.200;2022-07-06T06:22:06;4.50;;;4.10;;
25509;SDS011;13413;52.336;21.200;2022-07-06T06:25:29;4.20;;;3.80;;
25509;SDS011;13413;52.336;21.200;2022-07-06T06:28:50;5.70;;;3.80;;
25509;SDS011;13413;52.336;21.200;2022-07-06T06:32:13;6.50;;;3.90;;
25509;SDS011;13413;52.336;21.200;2022-07-06T06:35:32;5.30;;;4.30;;
25509;SDS011;13413;52.336;21.200;2022-07-06T06:38:52;6.70;;;6.00;;
25509;SDS011;13413;52.336;21.200;2022-07-06T06:42:14;37.10;;;10.70;;
25509;SDS011;13413;52.336;21.200;2022-07-06T06:45:33;31.20;;;9.30;;
25509;SDS011;13413;52.336;21.200;2022-07-06T06:48:53;10.80;;;6.90;;
25509;SDS011;13413;52.336;21.200;2022-07-06T06:52:14;10.40;;;7.30;;
25509;SDS011;13413;52.336;21.200;2022-07-06T06:55:33;9.20;;;6.90;;
25509;SDS011;13413;52.336;21.200;2022-07-06T06:58:52;15.10;;;10.60;;
25509;SDS011;13413;52.336;21.200;2022-07-06T07:02:12;13.80;;;10.50;;
25509;SDS011;13413;52.336;21.200;2022-07-06T07:05:32;15.70;;;10.50;;
25509;SDS011;13413;52.336;21.200;2022-07-06T07:08:50;13.90;;;11.00;;
25509;SDS011;13413;52.336;21.200;2022-07-06T07:12:10;13.90;;;11.80;;
25509;SDS011;13413;52.336;21.200;2022-07-06T07:15:30;20.00;;;11.60;;
25509;SDS011;13413;52.336;21.200;2022-07-06T07:18:50;13.30;;;11.90;;
25509;SDS011;13413;52.336;21.200;2022-07-06T07:22:09;11.40;;;10.40;;
25509;SDS011;13413;52.336;21.200;2022-07-06T07:25:29;11.70;;;10.60;;
25509;SDS011;13413;52.336;21.200;2022-07-06T07:28:48;13.30;;;9.10;;
25509;SDS011;13413;52.336;21.200;2022-07-06T07:32:08;9.70;;;7.80;;
25509;SDS011;13413;52.336;21.200;2022-07-06T07:35:29;10.70;;;7.70;;
25509;SDS011;13413;52.336;21.200;2022-07-06T07:38:47;9.80;;;6.10;;
25509;SDS011;13413;52.336;21.200;2022-07-06T07:42:07;8.50;;;6.00;;
25509;SDS011;13413;52.336;21.200;2022-07-06T07:45:26;6.50;;;4.20;;
25509;SDS011;13413;52.336;21.200;2022-07-06T07:48:46;7.10;;;4.00;;
25509;SDS011;13413;52.336;21.200;2022-07-06T07:52:08;7.20;;;4.90;;
25509;SDS011;13413;52.336;21.200;2022-07-06T07:55:27;9.40;;;4.00;;
25509;SDS011;13413;52.336;21.200;2022-07-06T07:58:47;8.60;;;4.20;;
25509;SDS011;13413;52.336;21.200;2022-07-06T08:02:08;6.40;;;3.20;;
25509;SDS011;13413;52.336;21.200;2022-07-06T08:05:26;3.40;;;2.70;;
25509;SDS011;13413;52.336;21.200;2022-07-06T08:08:47;8.60;;;3.60;;
25509;SDS011;13413;52.336;21.200;2022-07-06T08:12:07;14.30;;;3.60;;
25509;SDS011;13413;52.336;21.200;2022-07-06T08:15:27;8.50;;;2.90;;
25509;SDS011;13413;52.336;21.200;2022-07-06T08:18:48;2.80;;;2.50;;
25509;SDS011;13413;52.336;21.200;2022-07-06T08:22:07;4.80;;;2.60;;
25509;SDS011;13413;52.336;21.200;2022-07-06T08:25:27;6.60;;;3.50;;
25509;SDS011;13413;52.336;21.200;2022-07-06T08:28:46;5.90;;;2.40;;
25509;SDS011;13413;52.336;21.200;2022-07-06T08:32:06;4.90;;;2.40;;
25509;SDS011;13413;52.336;21.200;2022-07-06T08:35:26;5.70;;;2.70;;
25509;SDS011;13413;52.336;21.200;2022-07-06T08:38:44;10.20;;;3.40;;
25509;SDS011;13413;52.336;21.200;2022-07-06T08:42:04;4.40;;;2.70;;
25509;SDS011;13413;52.336;21.200;2022-07-06T08:45:26;3.20;;;2.00;;
25509;SDS011;13413;52.336;21.200;2022-07-06T08:48:46;3.20;;;2.30;;
25509;SDS011;13413;52.336;21.200;2022-07-06T08:52:09;4.80;;;2.50;;
25509;SDS011;13413;52.336;21.200;2022-07-06T08:55:30;4.20;;;2.50;;
25509;SDS011;13413;52.336;21.200;2022-07-06T08:58:51;7.30;;;2.30;;
25509;SDS011;13413;52.336;21.200;2022-07-06T09:02:13;6.70;;;2.30;;
25509;SDS011;13413;52.336;21.200;2022-07-06T09:05:34;4.30;;;2.10;;
25509;SDS011;13413;52.336;21.200;2022-07-06T09:08:54;5.30;;;2.10;;
25509;SDS011;13413;52.336;21.200;2022-07-06T09:12:15;2.70;;;1.60;;
25509;SDS011;13413;52.336;21.200;2022-07-06T09:15:34;3.80;;;1.60;;
25509;SDS011;13413;52.336;21.200;2022-07-06T09:18:56;5.50;;;2.40;;
25509;SDS011;13413;52.336;21.200;2022-07-06T09:22:26;4.10;;;1.70;;
25509;SDS011;13413;52.336;21.200;2022-07-06T09:25:48;4.50;;;1.60;;
25509;SDS011;13413;52.336;21.200;2022-07-06T09:29:09;1.50;;;1.00;;
25509;SDS011;13413;52.336;21.200;2022-07-06T09:32:29;3.20;;;1.00;;
25509;SDS011;13413;52.336;21.200;2022-07-06T09:35:49;1.40;;;0.80;;
25509;SDS011;13413;52.336;21.200;2022-07-06T09:39:20;3.40;;;1.00;;
25509;SDS011;13413;52.336;21.200;2022-07-06T09:42:42;2.80;;;1.60;;
25509;SDS011;13413;52.336;21.200;2022-07-06T09:46:01;4.10;;;1.70;;
25509;SDS011;13413;52.336;21.200;2022-07-06T09:49:20;7.10;;;1.80;;
25509;SDS011;13413;52.336;21.200;2022-07-06T09:52:41;9.70;;;1.70;;
25509;SDS011;13413;52.336;21.200;2022-07-06T09:56:11;4.50;;;1.30;;
25509;SDS011;13413;52.336;21.200;2022-07-06T09:59:30;4.80;;;1.00;;
25509;SDS011;13413;52.336;21.200;2022-07-06T10:02:50;6.40;;;1.40;;
25509;SDS011;13413;52.336;21.200;2022-07-06T10:06:12;3.10;;;1.10;;
25509;SDS011;13413;52.336;21.200;2022-07-06T10:09:31;2.40;;;1.10;;
25509;SDS011;13413;52.336;21.200;2022-07-06T10:12:49;3.50;;;1.60;;
25509;SDS011;13413;52.336;21.200;2022-07-06T10:16:12;4.40;;;1.00;;
25509;SDS011;13413;52.336;21.200;2022-07-06T10:19:34;3.90;;;0.90;;
25509;SDS011;13413;52.336;21.200;2022-07-06T10:22:54;3.10;;;1.40;;
25509;SDS011;13413;52.336;21.200;2022-07-06T10:26:15;7.80;;;1.60;;
25509;SDS011;13413;52.336;21.200;2022-07-06T10:29:43;1.90;;;0.90;;
25509;SDS011;13413;52.336;21.200;2022-07-06T10:33:04;3.30;;;1.00;;
25509;SDS011;13413;52.336;21.200;2022-07-06T10:36:23;2.50;;;1.10;;
25509;SDS011;13413;52.336;21.200;2022-07-06T10:39:42;6.90;;;1.40;;
25509;SDS011;13413;52.336;21.200;2022-07-06T10:43:08;2.70;;;1.10;;
25509;SDS011;13413;52.336;21.200;2022-07-06T10:46:29;2.20;;;0.90;;
25509;SDS011;13413;52.336;21.200;2022-07-06T10:49:53;5.80;;;1.30;;
25509;SDS011;13413;52.336;21.200;2022-07-06T10:53:21;3.20;;;0.90;;
25509;SDS011;13413;52.336;21.200;2022-07-06T10:56:42;5.10;;;1.00;;
25509;SDS011;13413;52.336;21.200;2022-07-06T11:00:05;4.90;;;0.80;;
25509;SDS011;13413;52.336;21.200;2022-07-06T11:03:35;3.00;;;0.60;;
25509;SDS011;13413;52.336;21.200;2022-07-06T11:06:56;1.40;;;0.70;;
25509;SDS011;13413;52.336;21.200;2022-07-06T11:10:24;3.70;;;0.90;;
25509;SDS011;13413;52.336;21.200;2022-07-06T11:13:46;4.80;;;1.00;;
25509;SDS011;13413;52.336;21.200;2022-07-06T11:17:08;3.10;;;0.80;;
25509;SDS011;13413;52.336;21.200;2022-07-06T11:20:28;3.50;;;1.00;;
25509;SDS011;13413;52.336;21.200;2022-07-06T11:23:47;11.60;;;1.60;;
25509;SDS011;13413;52.336;21.200;2022-07-06T11:27:07;3.10;;;0.90;;
25509;SDS011;13413;52.336;21.200;2022-07-06T11:30:26;5.40;;;1.00;;
25509;SDS011;13413;52.336;21.200;2022-07-06T11:33:47;3.80;;;1.10;;
25509;SDS011;13413;52.336;21.200;2022-07-06T11:37:09;6.90;;;1.40;;
25509;SDS011;13413;52.336;21.200;2022-07-06T11:40:31;1.80;;;1.10;;
25509;SDS011;13413;52.336;21.200;2022-07-06T11:43:56;2.30;;;1.20;;
25509;SDS011;13413;52.336;21.200;2022-07-06T11:47:15;4.50;;;1.90;;
25509;SDS011;13413;52.336;21.200;2022-07-06T11:50:35;2.90;;;1.30;;
25509;SDS011;13413;52.336;21.200;2022-07-06T11:53:55;5.10;;;1.60;;
25509;SDS011;13413;52.336;21.200;2022-07-06T11:57:17;3.70;;;1.10;;
25509;SDS011;13413;52.336;21.200;2022-07-06T12:00:37;3.50;;;1.30;;
25509;SDS011;13413;52.336;21.200;2022-07-06T12:03:58;3.10;;;1.10;;
25509;SDS011;13413;52.336;21.200;2022-07-06T12:07:18;3.00;;;1.00;;
25509;SDS011;13413;52.336;21.200;2022-07-06T12:10:38;1.90;;;1.00;;
25509;SDS011;13413;52.336;21.200;2022-07-06T12:13:57;1.50;;;0.90;;
25509;SDS011;13413;52.336;21.200;2022-07-06T12:17:18;3.00;;;0.90;;
25509;SDS011;13413;52.336;21.200;2022-07-06T12:20:38;1.40;;;0.80;;
25509;SDS011;13413;52.336;21.200;2022-07-06T12:23:57;8.80;;;2.00;;
25509;SDS011;13413;52.336;21.200;2022-07-06T12:27:17;6.90;;;1.20;;
25509;SDS011;13413;52.336;21.200;2022-07-06T12:30:39;4.40;;;1.40;;
25509;SDS011;13413;52.336;21.200;2022-07-06T12:34:11;8.70;;;2.40;;
25509;SDS011;13413;52.336;21.200;2022-07-06T12:37:32;1.60;;;1.00;;
25509;SDS011;13413;52.336;21.200;2022-07-06T12:40:52;4.20;;;1.40;;
25509;SDS011;13413;52.336;21.200;2022-07-06T12:44:12;4.20;;;1.40;;
25509;SDS011;13413;52.336;21.200;2022-07-06T12:47:34;1.10;;;0.80;;
25509;SDS011;13413;52.336;21.200;2022-07-06T12:50:55;4.70;;;1.40;;
25509;SDS011;13413;52.336;21.200;2022-07-06T12:54:16;3.00;;;1.50;;
25509;SDS011;13413;52.336;21.200;2022-07-06T12:57:43;5.40;;;1.50;;
25509;SDS011;13413;52.336;21.200;2022-07-06T13:01:03;3.10;;;1.60;;
25509;SDS011;13413;52.336;21.200;2022-07-06T13:04:23;1.60;;;0.80;;
25509;SDS011;13413;52.336;21.200;2022-07-06T13:07:45;2.70;;;1.00;;
25509;SDS011;13413;52.336;21.200;2022-07-06T13:11:06;1.50;;;1.30;;
25509;SDS011;13413;52.336;21.200;2022-07-06T13:14:25;2.50;;;1.00;;
25509;SDS011;13413;52.336;21.200;2022-07-06T13:17:44;9.00;;;1.40;;
25509;SDS011;13413;52.336;21.200;2022-07-06T13:21:03;1.10;;;0.90;;
25509;SDS011;13413;52.336;21.200;2022-07-06T13:24:23;1.60;;;0.90;;
25509;SDS011;13413;52.336;21.200;2022-07-06T13:27:42;6.20;;;1.70;;
25509;SDS011;13413;52.336;21.200;2022-07-06T13:31:01;2.80;;;1.10;;
25509;SDS011;13413;52.336;21.200;2022-07-06T13:34:33;7.40;;;1.60;;
25509;SDS011;13413;52.336;21.200;2022-07-06T13:37:52;2.70;;;0.80;;
25509;SDS011;13413;52.336;21.200;2022-07-06T13:41:12;7.30;;;1.20;;
25509;SDS011;13413;52.336;21.200;2022-07-06T13:44:31;7.50;;;1.40;;
25509;SDS011;13413;52.336;21.200;2022-07-06T13:47:50;5.00;;;2.00;;
25509;SDS011;13413;52.336;21.200;2022-07-06T13:51:09;3.70;;;1.10;;
25509;SDS011;13413;52.336;21.200;2022-07-06T13:54:30;4.90;;;1.50;;
25509;SDS011;13413;52.336;21.200;2022-07-06T13:57:50;7.70;;;1.20;;
25509;SDS011;13413;52.336;21.200;2022-07-06T14:01:09;1.70;;;1.00;;
25509;SDS011;13413;52.336;21.200;2022-07-06T14:04:28;14.70;;;2.30;;
25509;SDS011;13413;52.336;21.200;2022-07-06T14:07:47;2.40;;;0.80;;
25509;SDS011;13413;52.336;21.200;2022-07-06T14:11:06;6.20;;;1.40;;
25509;SDS011;13413;52.336;21.200;2022-07-06T14:14:28;6.00;;;3.30;;
25509;SDS011;13413;52.336;21.200;2022-07-06T14:17:47;3.50;;;1.20;;
25509;SDS011;13413;52.336;21.200;2022-07-06T14:21:06;3.10;;;2.30;;
25509;SDS011;13413;52.336;21.200;2022-07-06T14:24:25;8.90;;;6.20;;
25509;SDS011;13413;52.336;21.200;2022-07-06T14:27:45;11.90;;;3.00;;
25509;SDS011;13413;52.336;21.200;2022-07-06T14:31:05;6.40;;;3.40;;
25509;SDS011;13413;52.336;21.200;2022-07-06T14:34:25;10.90;;;3.20;;
25509;SDS011;13413;52.336;21.200;2022-07-06T14:37:44;3.20;;;1.10;;
25509;SDS011;13413;52.336;21.200;2022-07-06T14:41:05;4.80;;;1.70;;
25509;SDS011;13413;52.336;21.200;2022-07-06T14:44:24;5.10;;;3.50;;
25509;SDS011;13413;52.336;21.200;2022-07-06T14:47:43;5.30;;;1.80;;
25509;SDS011;13413;52.336;21.200;2022-07-06T14:51:03;4.60;;;2.10;;
25509;SDS011;13413;52.336;21.200;2022-07-06T14:54:23;6.10;;;1.90;;
25509;SDS011;13413;52.336;21.200;2022-07-06T14:57:43;2.40;;;1.20;;
25509;SDS011;13413;52.336;21.200;2022-07-06T15:01:04;3.90;;;1.00;;
25509;SDS011;13413;52.336;21.200;2022-07-06T15:04:23;2.20;;;1.10;;
25509;SDS011;13413;52.336;21.200;2022-07-06T15:07:43;1.40;;;1.00;;
25509;SDS011;13413;52.336;21.200;2022-07-06T15:11:03;3.10;;;1.30;;
25509;SDS011;13413;52.336;21.200;2022-07-06T15:14:22;3.20;;;1.90;;
25509;SDS011;13413;52.336;21.200;2022-07-06T15:17:42;5.10;;;2.10;;
25509;SDS011;13413;52.336;21.200;2022-07-06T15:21:01;2.00;;;1.30;;
25509;SDS011;13413;52.336;21.200;2022-07-06T15:24:23;11.20;;;4.80;;
25509;SDS011;13413;52.336;21.200;2022-07-06T15:27:43;8.30;;;2.10;;
25509;SDS011;13413;52.336;21.200;2022-07-06T15:31:02;2.60;;;2.00;;
25509;SDS011;13413;52.336;21.200;2022-07-06T15:34:22;3.40;;;1.60;;
25509;SDS011;13413;52.336;21.200;2022-07-06T15:37:42;6.40;;;1.70;;
25509;SDS011;13413;52.336;21.200;2022-07-06T15:41:02;2.30;;;1.30;;
25509;SDS011;13413;52.336;21.200;2022-07-06T15:44:21;4.10;;;1.80;;
25509;SDS011;13413;52.336;21.200;2022-07-06T15:47:41;5.70;;;1.60;;
25509;SDS011;13413;52.336;21.200;2022-07-06T15:51:00;5.10;;;1.90;;
25509;SDS011;13413;52.336;21.200;2022-07-06T15:54:20;8.60;;;1.80;;
25509;SDS011;13413;52.336;21.200;2022-07-06T15:57:39;3.20;;;1.90;;
25509;SDS011;13413;52.336;21.200;2022-07-06T16:00:59;2.50;;;1.40;;
25509;SDS011;13413;52.336;21.200;2022-07-06T16:04:18;5.10;;;1.30;;
25509;SDS011;13413;52.336;21.200;2022-07-06T16:07:38;7.20;;;1.50;;
25509;SDS011;13413;52.336;21.200;2022-07-06T16:10:58;8.10;;;1.80;;
25509;SDS011;13413;52.336;21.200;2022-07-06T16:14:18;9.10;;;1.60;;
25509;SDS011;13413;52.336;21.200;2022-07-06T16:17:38;4.00;;;1.90;;
25509;SDS011;13413;52.336;21.200;2022-07-06T16:20:57;4.70;;;1.60;;
25509;SDS011;13413;52.336;21.200;2022-07-06T16:24:17;4.10;;;1.50;;
25509;SDS011;13413;52.336;21.200;2022-07-06T16:27:36;7.50;;;1.40;;
25509;SDS011;13413;52.336;21.200;2022-07-06T16:30:55;2.00;;;1.20;;
25509;SDS011;13413;52.336;21.200;2022-07-06T16:34:14;5.10;;;1.50;;
25509;SDS011;13413;52.336;21.200;2022-07-06T16:37:33;4.10;;;1.30;;
25509;SDS011;13413;52.336;21.200;2022-07-06T16:41:12;3.70;;;1.30;;
25509;SDS011;13413;52.336;21.200;2022-07-06T16:44:31;5.40;;;1.30;;
25509;SDS011;13413;52.336;21.200;2022-07-06T16:47:50;5.80;;;1.60;;
25509;SDS011;13413;52.336;21.200;2022-07-06T16:51:09;3.30;;;1.60;;
25509;SDS011;13413;52.336;21.200;2022-07-06T16:54:29;3.00;;;1.40;;
25509;SDS011;13413;52.336;21.200;2022-07-06T16:57:48;2.30;;;1.40;;
25509;SDS011;13413;52.336;21.200;2022-07-06T17:01:08;2.90;;;1.40;;
25509;SDS011;13413;52.336;21.200;2022-07-06T17:04:28;4.10;;;1.40;;
25509;SDS011;13413;52.336;21.200;2022-07-06T17:07:47;6.60;;;1.70;;
25509;SDS011;13413;52.336;21.200;2022-07-06T17:11:06;2.90;;;1.60;;
25509;SDS011;13413;52.336;21.200;2022-07-06T17:14:26;3.10;;;2.00;;
25509;SDS011;13413;52.336;21.200;2022-07-06T17:17:46;2.50;;;1.40;;
25509;SDS011;13413;52.336;21.200;2022-07-06T17:21:06;3.50;;;1.60;;
25509;SDS011;13413;52.336;21.200;2022-07-06T17:24:26;3.50;;;1.40;;
25509;SDS011;13413;52.336;21.200;2022-07-06T17:27:46;7.00;;;1.50;;
25509;SDS011;13413;52.336;21.200;2022-07-06T17:31:05;3.20;;;1.50;;
25509;SDS011;13413;52.336;21.200;2022-07-06T17:34:24;2.70;;;2.00;;
25509;SDS011;13413;52.336;21.200;2022-07-06T17:37:43;1.60;;;1.30;;
25509;SDS011;13413;52.336;21.200;2022-07-06T17:41:03;5.00;;;1.70;;
25509;SDS011;13413;52.336;21.200;2022-07-06T17:44:22;4.80;;;1.70;;
25509;SDS011;13413;52.336;21.200;2022-07-06T17:47:41;5.40;;;2.00;;
25509;SDS011;13413;52.336;21.200;2022-07-06T17:51:00;2.20;;;1.50;;
25509;SDS011;13413;52.336;21.200;2022-07-06T17:54:19;4.00;;;2.10;;
25509;SDS011;13413;52.336;21.200;2022-07-06T17:57:40;5.50;;;2.70;;
25509;SDS011;13413;52.336;21.200;2022-07-06T18:01:00;3.00;;;1.90;;
25509;SDS011;13413;52.336;21.200;2022-07-06T18:04:22;4.50;;;2.10;;
25509;SDS011;13413;52.336;21.200;2022-07-06T18:07:42;4.60;;;1.80;;
25509;SDS011;13413;52.336;21.200;2022-07-06T18:11:01;3.50;;;1.90;;
25509;SDS011;13413;52.336;21.200;2022-07-06T18:14:21;1.60;;;1.40;;
25509;SDS011;13413;52.336;21.200;2022-07-06T18:17:40;4.90;;;1.70;;
25509;SDS011;13413;52.336;21.200;2022-07-06T18:20:59;2.10;;;1.50;;
25509;SDS011;13413;52.336;21.200;2022-07-06T18:24:19;3.90;;;1.30;;
25509;SDS011;13413;52.336;21.200;2022-07-06T18:27:38;5.30;;;2.00;;
25509;SDS011;13413;52.336;21.200;2022-07-06T18:30:57;5.20;;;2.40;;
25509;SDS011;13413;52.336;21.200;2022-07-06T18:34:16;5.50;;;2.20;;
25509;SDS011;13413;52.336;21.200;2022-07-06T18:37:36;3.30;;;2.10;;
25509;SDS011;13413;52.336;21.200;2022-07-06T18:44:14;5.90;;;2.90;;
25509;SDS011;13413;52.336;21.200;2022-07-06T18:47:34;7.40;;;3.40;;
25509;SDS011;13413;52.336;21.200;2022-07-06T18:50:54;9.30;;;4.30;;
25509;SDS011;13413;52.336;21.200;2022-07-06T18:54:34;7.90;;;3.50;;
25509;SDS011;13413;52.336;21.200;2022-07-06T18:57:54;7.70;;;4.00;;
25509;SDS011;13413;52.336;21.200;2022-07-06T19:01:12;5.50;;;3.50;;
25509;SDS011;13413;52.336;21.200;2022-07-06T19:04:31;4.20;;;3.30;;
25509;SDS011;13413;52.336;21.200;2022-07-06T19:07:51;6.80;;;3.00;;
25509;SDS011;13413;52.336;21.200;2022-07-06T19:11:10;8.50;;;3.40;;
25509;SDS011;13413;52.336;21.200;2022-07-06T19:14:29;8.90;;;3.80;;
25509;SDS011;13413;52.336;21.200;2022-07-06T19:17:50;6.40;;;3.70;;
25509;SDS011;13413;52.336;21.200;2022-07-06T19:21:09;4.40;;;3.30;;
25509;SDS011;13413;52.336;21.200;2022-07-06T19:24:30;7.70;;;4.00;;
25509;SDS011;13413;52.336;21.200;2022-07-06T19:27:49;4.20;;;3.20;;
25509;SDS011;13413;52.336;21.200;2022-07-06T19:31:09;5.90;;;4.00;;
25509;SDS011;13413;52.336;21.200;2022-07-06T19:34:28;6.50;;;3.60;;
25509;SDS011;13413;52.336;21.200;2022-07-06T19:37:48;8.30;;;2.90;;
25509;SDS011;13413;52.336;21.200;2022-07-06T19:41:07;7.70;;;3.30;;
25509;SDS011;13413;52.336;21.200;2022-07-06T19:44:28;7.60;;;3.10;;
25509;SDS011;13413;52.336;21.200;2022-07-06T19:47:47;6.50;;;2.60;;
25509;SDS011;13413;52.336;21.200;2022-07-06T19:51:09;4.20;;;2.80;;
25509;SDS011;13413;52.336;21.200;2022-07-06T19:54:28;4.00;;;2.80;;